createdAt,value
2022-09-15T00:00:05.180Z,3.15
2022-09-15T00:00:17.191Z,2.83
2022-09-15T00:00:29.156Z,2.90
2022-09-15T00:00:41.045Z,3.33
2022-09-15T00:00:54.023Z,3.38
2022-09-15T00:01:07.031Z,3.00
2022-09-15T00:01:19.194Z,2.60
2022-09-15T00:01:31.311Z,2.70
2022-09-15T00:01:43.465Z,2.67
2022-09-15T00:01:55.438Z,2.90
2022-09-15T00:02:08.492Z,3.10
2022-09-15T00:02:20.629Z,3.13
2022-09-15T00:02:32.855Z,2.97
2022-09-15T00:02:44.949Z,2.97
2022-09-15T00:02:57.124Z,3.00
2022-09-15T00:03:09.196Z,3.03
2022-09-15T00:03:22.822Z,2.92
2022-09-15T00:03:35.359Z,2.83
2022-09-15T00:03:47.396Z,2.80
2022-09-15T00:03:59.428Z,2.90
2022-09-15T00:04:11.328Z,2.80
2022-09-15T00:04:23.215Z,2.85
2022-09-15T00:04:35.201Z,2.88
2022-09-15T00:04:47.108Z,3.10
2022-09-15T00:04:59.256Z,2.90
2022-09-15T00:05:11.990Z,2.90
2022-09-15T00:05:23.924Z,2.60
2022-09-15T00:05:35.976Z,2.60
2022-09-15T00:05:48.204Z,2.47
2022-09-15T00:06:00.105Z,2.55
2022-09-15T00:06:12.547Z,2.58
2022-09-15T00:06:24.689Z,2.80
2022-09-15T00:06:36.626Z,2.72
2022-09-15T00:06:48.541Z,2.65
2022-09-15T00:07:00.575Z,2.63
2022-09-15T00:07:12.477Z,2.60
2022-09-15T00:07:24.337Z,2.50
2022-09-15T00:07:36.715Z,2.58
2022-09-15T00:07:48.628Z,2.70
2022-09-15T00:08:00.681Z,2.58
2022-09-15T00:08:13.218Z,2.75
2022-09-15T00:08:25.836Z,2.80
2022-09-15T00:08:38.486Z,2.72
2022-09-15T00:08:50.471Z,2.70
2022-09-15T00:09:04.047Z,2.50
2022-09-15T00:09:15.976Z,2.38
2022-09-15T00:09:27.866Z,2.40
2022-09-15T00:09:39.772Z,2.40
2022-09-15T00:09:51.636Z,2.40
2022-09-15T00:10:06.401Z,2.47
2022-09-15T00:10:18.639Z,2.40
2022-09-15T00:10:30.831Z,2.30
2022-09-15T00:10:53.465Z,2.28
2022-09-15T00:11:12.570Z,2.60
2022-09-15T00:11:27.334Z,2.60
2022-09-15T00:11:39.411Z,2.60
2022-09-15T00:11:51.310Z,2.53
2022-09-15T00:12:03.307Z,2.42
2022-09-15T00:12:15.308Z,2.40
2022-09-15T00:12:27.861Z,2.50
2022-09-15T00:12:39.794Z,2.50
2022-09-15T00:12:51.744Z,2.20
2022-09-15T00:13:04.024Z,2.05
2022-09-15T00:13:16.813Z,2.10
2022-09-15T00:13:29.443Z,2.20
2022-09-15T00:13:42.150Z,2.22
2022-09-15T00:13:56.188Z,2.30
2022-09-15T00:14:08.883Z,2.38
2022-09-15T00:14:20.942Z,2.40
2022-09-15T00:14:32.832Z,2.33
2022-09-15T00:14:44.764Z,2.17
2022-09-15T00:14:57.058Z,2.35
2022-09-15T00:15:13.162Z,2.50
2022-09-15T00:15:25.130Z,2.50
2022-09-15T00:15:37.004Z,2.50
2022-09-15T00:15:48.987Z,2.40
2022-09-15T00:16:01.187Z,2.22
2022-09-15T00:16:15.328Z,2.30
2022-09-15T00:16:32.730Z,2.38
2022-09-15T00:16:44.974Z,2.20
2022-09-15T00:16:57.022Z,2.33
2022-09-15T00:17:09.025Z,2.50
2022-09-15T00:17:21.224Z,2.55
2022-09-15T00:17:33.094Z,2.50
2022-09-15T00:17:50.033Z,2.50
2022-09-15T00:18:01.976Z,2.20
2022-09-15T00:18:13.960Z,2.10
2022-09-15T00:18:25.965Z,2.10
2022-09-15T00:18:39.474Z,2.40
2022-09-15T00:18:51.591Z,2.30
2022-09-15T00:19:04.639Z,2.20
2022-09-15T00:19:16.601Z,2.30
2022-09-15T00:19:28.475Z,2.40
2022-09-15T00:19:40.401Z,2.58
2022-09-15T00:19:52.516Z,2.58
2022-09-15T00:20:06.481Z,2.58
2022-09-15T00:20:22.061Z,2.47
2022-09-15T00:20:33.944Z,2.40
2022-09-15T00:20:46.215Z,2.30
2022-09-15T00:20:58.376Z,2.35
2022-09-15T00:21:19.843Z,2.47
2022-09-15T00:21:33.863Z,2.20
2022-09-15T00:21:45.754Z,2.30
2022-09-15T00:21:57.664Z,2.28
2022-09-15T00:22:09.534Z,2.25
2022-09-15T00:22:21.567Z,2.28
2022-09-15T00:22:33.704Z,2.23
2022-09-15T00:22:45.829Z,2.17
2022-09-15T00:22:57.726Z,2.00
2022-09-15T00:23:11.550Z,2.10
2022-09-15T00:23:23.990Z,2.30
2022-09-15T00:23:37.211Z,2.35
2022-09-15T00:23:50.116Z,2.15
2022-09-15T00:24:02.390Z,2.00
2022-09-15T00:24:14.282Z,2.00
2022-09-15T00:24:26.230Z,2.17
2022-09-15T00:24:38.179Z,2.17
2022-09-15T00:24:50.160Z,2.10
2022-09-15T00:25:02.046Z,2.00
2022-09-15T00:25:14.600Z,2.03
2022-09-15T00:25:26.541Z,2.10
2022-09-15T00:25:49.668Z,2.00
2022-09-15T00:26:01.805Z,2.28
2022-09-15T00:26:16.593Z,2.10
2022-09-15T00:26:30.515Z,1.98
2022-09-15T00:26:42.432Z,1.95
2022-09-15T00:26:54.372Z,1.98
2022-09-15T00:27:06.265Z,2.00
2022-09-15T00:27:18.309Z,2.08
2022-09-15T00:27:31.673Z,1.90
2022-09-15T00:27:43.872Z,1.80
2022-09-15T00:27:55.778Z,1.77
2022-09-15T00:28:07.647Z,1.88
2022-09-15T00:28:22.249Z,1.77
2022-09-15T00:28:34.191Z,1.73
2022-09-15T00:28:46.836Z,1.80
2022-09-15T00:29:00.238Z,1.80
2022-09-15T00:29:12.915Z,1.85
2022-09-15T00:29:24.814Z,1.92
2022-09-15T00:29:36.699Z,1.80
2022-09-15T00:29:48.579Z,1.88
2022-09-15T00:30:00.885Z,1.90
2022-09-15T00:30:12.920Z,1.90
2022-09-15T00:30:24.895Z,1.85
2022-09-15T00:30:41.143Z,1.80
2022-09-15T00:30:54.898Z,2.05
2022-09-15T00:31:09.877Z,2.10
2022-09-15T00:31:23.686Z,1.92
2022-09-15T00:31:35.649Z,1.90
2022-09-15T00:31:47.520Z,1.85
2022-09-15T00:31:59.478Z,2.00
2022-09-15T00:32:11.366Z,2.05
2022-09-15T00:32:23.249Z,2.05
2022-09-15T00:32:35.282Z,2.03
2022-09-15T00:32:47.160Z,1.90
2022-09-15T00:32:59.037Z,1.80
2022-09-15T00:33:12.181Z,1.80
2022-09-15T00:33:24.461Z,1.90
2022-09-15T00:33:36.975Z,1.95
2022-09-15T00:33:50.544Z,1.80
2022-09-15T00:34:02.768Z,1.90
2022-09-15T00:34:14.658Z,1.83
2022-09-15T00:34:26.529Z,1.80
2022-09-15T00:34:38.434Z,1.80
2022-09-15T00:34:51.241Z,1.85
2022-09-15T00:35:04.726Z,1.80
2022-09-15T00:35:16.706Z,1.90
2022-09-15T00:35:28.588Z,2.00
2022-09-15T00:35:42.559Z,2.08
2022-09-15T00:35:54.468Z,1.95
2022-09-15T00:36:11.041Z,1.75
2022-09-15T00:36:24.665Z,1.60
2022-09-15T00:36:36.626Z,1.70
2022-09-15T00:36:48.501Z,1.70
2022-09-15T00:37:00.470Z,1.77
2022-09-15T00:37:12.356Z,1.83
2022-09-15T00:37:24.284Z,1.75
2022-09-15T00:37:36.190Z,1.80
2022-09-15T00:37:48.082Z,1.70
2022-09-15T00:37:59.973Z,1.70
2022-09-15T00:38:13.354Z,1.63
2022-09-15T00:38:25.233Z,1.73
2022-09-15T00:38:38.558Z,1.70
2022-09-15T00:38:50.906Z,2.00
2022-09-15T00:39:03.516Z,2.00
2022-09-15T00:39:15.425Z,1.90
2022-09-15T00:39:27.476Z,1.60
2022-09-15T00:39:39.347Z,1.65
2022-09-15T00:39:53.068Z,1.63
2022-09-15T00:40:05.557Z,1.80
2022-09-15T00:40:17.658Z,1.70
2022-09-15T00:40:29.728Z,1.55
2022-09-15T00:40:49.947Z,1.50
2022-09-15T00:41:03.671Z,1.45
2022-09-15T00:41:19.399Z,1.40
2022-09-15T00:41:31.893Z,1.40
2022-09-15T00:41:44.028Z,1.27
2022-09-15T00:41:55.932Z,1.30
2022-09-15T00:42:14.645Z,1.30
2022-09-15T00:42:26.577Z,1.45
2022-09-15T00:42:38.504Z,1.52
2022-09-15T00:42:50.380Z,1.40
2022-09-15T00:43:02.260Z,1.35
2022-09-15T00:43:16.215Z,1.45
2022-09-15T00:43:52.383Z,1.48
2022-09-15T00:44:35.956Z,1.35
2022-09-15T00:44:59.930Z,1.30
2022-09-15T00:45:16.858Z,1.10
2022-09-15T00:45:28.998Z,1.23
2022-09-15T00:45:41.175Z,1.30
2022-09-15T00:45:53.117Z,1.27
2022-09-15T00:46:05.214Z,1.27
2022-09-15T00:46:22.816Z,1.40
2022-09-15T00:46:43.442Z,1.30
2022-09-15T00:47:15.662Z,1.20
2022-09-15T00:47:38.209Z,1.25
2022-09-15T00:47:50.202Z,1.27
2022-09-15T00:48:02.878Z,1.33
2022-09-15T00:48:20.699Z,1.20
2022-09-15T00:48:34.343Z,1.33
2022-09-15T00:49:15.229Z,1.35
2022-09-15T00:49:32.328Z,1.30
2022-09-15T00:49:45.069Z,1.15
2022-09-15T00:50:08.131Z,1.20
2022-09-15T00:50:21.015Z,1.20
2022-09-15T00:50:34.672Z,1.20
2022-09-15T00:50:52.506Z,1.10
2022-09-15T00:51:07.202Z,1.20
2022-09-15T00:51:32.564Z,1.27
2022-09-15T00:52:10.293Z,1.20
2022-09-15T00:52:47.173Z,1.20
2022-09-15T00:53:01.938Z,1.40
2022-09-15T00:53:15.822Z,1.30
2022-09-15T00:53:28.334Z,1.23
2022-09-15T00:53:41.754Z,1.20
2022-09-15T00:53:54.089Z,1.20
2022-09-15T00:54:13.070Z,1.17
2022-09-15T00:54:40.030Z,1.17
2022-09-15T00:55:16.931Z,1.30
2022-09-15T00:55:49.458Z,1.33
2022-09-15T00:56:03.417Z,1.30
2022-09-15T00:56:17.281Z,1.20
2022-09-15T00:56:31.897Z,1.20
2022-09-15T00:56:46.510Z,1.30
2022-09-15T00:57:02.088Z,1.20
2022-09-15T00:57:20.907Z,1.25
2022-09-15T00:57:38.989Z,1.25
2022-09-15T00:58:00.340Z,1.35
2022-09-15T00:58:18.717Z,1.50
2022-09-15T00:58:56.944Z,1.40
2022-09-15T00:59:14.936Z,1.30
2022-09-15T00:59:30.178Z,1.40
2022-09-15T00:59:44.392Z,1.40
2022-09-15T00:59:59.475Z,1.30
2022-09-15T01:00:14.618Z,1.20
2022-09-15T01:00:28.110Z,1.20
2022-09-15T01:00:50.405Z,1.15
2022-09-15T01:01:04.432Z,1.45
2022-09-15T01:01:16.754Z,1.40
2022-09-15T01:01:31.261Z,1.20
2022-09-15T01:01:46.021Z,1.20
2022-09-15T01:02:21.297Z,1.30
2022-09-15T01:02:35.913Z,1.20
2022-09-15T01:02:49.403Z,1.20
2022-09-15T01:03:02.067Z,1.30
2022-09-15T01:03:14.770Z,1.20
2022-09-15T01:03:30.401Z,1.17
2022-09-15T01:03:42.919Z,1.30
2022-09-15T01:03:55.365Z,1.30
2022-09-15T01:04:07.313Z,1.20
2022-09-15T01:04:19.448Z,1.30
2022-09-15T01:04:32.135Z,1.20
2022-09-15T01:04:44.413Z,1.10
2022-09-15T01:04:58.690Z,1.10
2022-09-15T01:05:15.161Z,1.20
2022-09-15T01:05:31.695Z,1.40
2022-09-15T01:05:48.441Z,1.30
2022-09-15T01:06:20.481Z,1.10
2022-09-15T01:06:45.080Z,1.20
2022-09-15T01:07:02.194Z,1.20
2022-09-15T01:07:16.780Z,1.13
2022-09-15T01:07:35.669Z,1.05
2022-09-15T01:07:56.208Z,1.10
2022-09-15T01:08:54.486Z,1.20
2022-09-15T01:09:20.959Z,1.10
2022-09-15T01:09:45.266Z,1.23
2022-09-15T01:10:00.384Z,1.10
2022-09-15T01:10:22.503Z,1.10
2022-09-15T01:10:37.394Z,1.30
2022-09-15T01:10:51.972Z,1.38
2022-09-15T01:11:03.864Z,1.20
2022-09-15T01:11:16.953Z,1.13
2022-09-15T01:11:29.421Z,1.10
2022-09-15T01:11:42.178Z,1.10
2022-09-15T01:11:54.151Z,1.00
2022-09-15T01:12:06.370Z,1.00
2022-09-15T01:12:19.223Z,1.10
2022-09-15T01:12:31.300Z,1.20
2022-09-15T01:12:43.271Z,1.10
2022-09-15T01:12:59.416Z,0.98
2022-09-15T01:13:13.720Z,1.00
2022-09-15T01:13:25.761Z,1.10
2022-09-15T01:13:37.671Z,1.10
2022-09-15T01:13:49.558Z,1.10
2022-09-15T01:14:01.961Z,1.17
2022-09-15T01:14:13.858Z,1.20
2022-09-15T01:14:25.719Z,1.15
2022-09-15T01:14:37.587Z,1.10
2022-09-15T01:14:49.520Z,1.10
2022-09-15T01:15:01.839Z,1.10
2022-09-15T01:15:14.356Z,1.10
2022-09-15T01:15:35.944Z,1.20
2022-09-15T01:15:53.635Z,1.30
2022-09-15T01:16:18.632Z,1.17
2022-09-15T01:17:03.755Z,1.10
2022-09-15T01:17:34.305Z,1.00
2022-09-15T01:18:24.485Z,0.90
2022-09-15T01:18:57.337Z,1.00
2022-09-15T01:19:22.376Z,0.98
2022-09-15T01:19:55.873Z,1.10
2022-09-15T01:20:32.377Z,1.08
2022-09-15T01:21:08.445Z,0.98
2022-09-15T01:21:28.306Z,1.30
2022-09-15T01:21:47.653Z,1.17
2022-09-15T01:22:32.545Z,1.02
2022-09-15T01:23:06.023Z,1.10
2022-09-15T01:23:34.242Z,1.10
2022-09-15T01:24:17.038Z,1.00
2022-09-15T01:24:44.892Z,1.00
2022-09-15T01:25:38.770Z,1.00
2022-09-15T01:26:09.266Z,1.00
2022-09-15T01:26:35.872Z,1.00
2022-09-15T01:26:56.656Z,1.00
2022-09-15T01:27:37.619Z,1.00
2022-09-15T01:27:43.888Z,1.13
2022-09-15T01:28:14.527Z,1.15
2022-09-15T01:29:12.368Z,1.10
2022-09-15T01:29:36.289Z,0.93
2022-09-15T01:29:54.078Z,1.30
2022-09-15T01:30:09.675Z,1.40
2022-09-15T01:30:23.507Z,1.00
2022-09-15T01:30:42.364Z,0.85
2022-09-15T01:31:03.375Z,1.10
2022-09-15T01:31:24.142Z,1.10
2022-09-15T01:32:12.738Z,1.10
2022-09-15T01:33:06.529Z,0.90
2022-09-15T01:33:43.931Z,0.90
2022-09-15T01:34:06.483Z,1.00
2022-09-15T01:34:20.647Z,0.90
2022-09-15T01:34:43.222Z,0.90
2022-09-15T01:35:04.982Z,1.10
2022-09-15T01:35:34.976Z,1.10
2022-09-15T01:36:01.833Z,1.00
2022-09-15T01:36:32.584Z,0.90
2022-09-15T01:37:04.950Z,1.20
2022-09-15T01:37:24.363Z,0.98
2022-09-15T01:37:46.499Z,1.15
2022-09-15T01:38:30.049Z,1.10
2022-09-15T01:39:04.017Z,1.00
2022-09-15T01:39:21.556Z,1.00
2022-09-15T01:39:39.823Z,1.00
2022-09-15T01:39:53.475Z,0.93
2022-09-15T01:40:06.828Z,1.00
2022-09-15T01:40:23.184Z,1.10
2022-09-15T01:40:41.498Z,1.10
2022-09-15T01:41:07.184Z,1.10
2022-09-15T01:41:35.001Z,0.90
2022-09-15T01:41:55.587Z,1.02
2022-09-15T01:42:12.763Z,0.90
2022-09-15T01:42:27.022Z,0.98
2022-09-15T01:42:40.299Z,1.00
2022-09-15T01:42:53.982Z,1.00
2022-09-15T01:43:09.133Z,1.00
2022-09-15T01:43:27.823Z,1.10
2022-09-15T01:43:47.675Z,1.20
2022-09-15T01:44:13.096Z,1.17
2022-09-15T01:44:29.251Z,0.90
2022-09-15T01:44:49.409Z,1.25
2022-09-15T01:45:08.633Z,1.15
2022-09-15T01:45:26.331Z,1.00
2022-09-15T01:45:42.139Z,0.90
2022-09-15T01:45:54.212Z,1.00
2022-09-15T01:46:08.342Z,1.20
2022-09-15T01:46:23.379Z,1.20
2022-09-15T01:46:40.293Z,1.10
2022-09-15T01:47:00.128Z,1.00
2022-09-15T01:47:15.985Z,1.00
2022-09-15T01:47:30.283Z,0.90
2022-09-15T01:47:42.979Z,0.90
2022-09-15T01:47:57.491Z,1.08
2022-09-15T01:48:09.977Z,1.08
2022-09-15T01:48:25.451Z,1.02
2022-09-15T01:48:38.992Z,1.00
2022-09-15T01:48:54.791Z,1.00
2022-09-15T01:49:10.990Z,0.98
2022-09-15T01:49:28.267Z,0.90
2022-09-15T01:49:47.576Z,0.90
2022-09-15T01:50:06.404Z,1.05
2022-09-15T01:50:28.632Z,1.10
2022-09-15T01:50:48.871Z,1.00
2022-09-15T01:51:03.152Z,1.00
2022-09-15T01:51:16.388Z,1.10
2022-09-15T01:51:30.039Z,1.02
2022-09-15T01:51:44.894Z,0.98
2022-09-15T01:51:56.815Z,0.95
2022-09-15T01:52:08.804Z,1.02
2022-09-15T01:52:23.404Z,1.08
2022-09-15T01:52:36.603Z,0.90
2022-09-15T01:52:53.638Z,0.90
2022-09-15T01:53:11.009Z,1.00
2022-09-15T01:53:23.450Z,1.08
2022-09-15T01:53:35.835Z,1.10
2022-09-15T01:53:49.594Z,1.00
2022-09-15T01:54:03.809Z,1.00
2022-09-15T01:54:19.990Z,1.10
2022-09-15T01:54:45.706Z,1.00
2022-09-15T01:55:03.638Z,0.90
2022-09-15T01:55:23.604Z,1.05
2022-09-15T01:55:41.299Z,1.10
2022-09-15T01:56:02.227Z,0.90
2022-09-15T01:56:14.228Z,0.90
2022-09-15T01:56:26.171Z,1.10
2022-09-15T01:56:39.176Z,1.17
2022-09-15T01:56:51.061Z,1.27
2022-09-15T01:57:03.434Z,1.17
2022-09-15T01:57:22.711Z,1.20
2022-09-15T01:57:34.700Z,1.20
2022-09-15T01:57:46.622Z,1.05
2022-09-15T01:57:59.542Z,1.00
2022-09-15T01:58:11.422Z,0.90
2022-09-15T01:58:23.470Z,1.00
2022-09-15T01:58:37.795Z,1.00
2022-09-15T01:58:51.218Z,0.90
2022-09-15T01:59:03.625Z,0.90
2022-09-15T01:59:16.032Z,1.25
2022-09-15T01:59:28.221Z,1.23
2022-09-15T01:59:40.133Z,1.20
2022-09-15T01:59:54.557Z,1.00
2022-09-15T02:00:07.360Z,0.90
2022-09-15T02:00:19.380Z,0.90
2022-09-15T02:00:35.092Z,0.90
2022-09-15T02:00:57.129Z,1.20
2022-09-15T02:01:34.221Z,1.15
2022-09-15T02:01:51.803Z,1.00
2022-09-15T02:02:20.443Z,1.08
2022-09-15T02:02:44.363Z,1.15
2022-09-15T02:03:04.099Z,1.00
2022-09-15T02:03:26.743Z,1.10
2022-09-15T02:03:47.575Z,1.00
2022-09-15T02:04:09.976Z,1.20
2022-09-15T02:04:30.241Z,1.20
2022-09-15T02:04:50.924Z,1.00
2022-09-15T02:05:11.225Z,1.00
2022-09-15T02:05:30.631Z,1.10
2022-09-15T02:05:48.543Z,1.00
2022-09-15T02:06:10.179Z,0.90
2022-09-15T02:06:39.613Z,1.00
2022-09-15T02:07:11.613Z,1.08
2022-09-15T02:07:38.388Z,1.00
2022-09-15T02:08:06.190Z,1.00
2022-09-15T02:08:25.266Z,1.10
2022-09-15T02:08:37.141Z,0.95
2022-09-15T02:08:58.528Z,1.00
2022-09-15T02:09:18.220Z,1.00
2022-09-15T02:09:38.774Z,0.98
2022-09-15T02:10:02.606Z,0.90
2022-09-15T02:10:21.886Z,1.05
2022-09-15T02:10:40.152Z,1.00
2022-09-15T02:11:04.126Z,1.02
2022-09-15T02:11:21.437Z,1.05
2022-09-15T02:11:40.075Z,1.00
2022-09-15T02:12:35.318Z,0.90
2022-09-15T02:13:35.855Z,1.10
2022-09-15T02:14:10.410Z,1.00
2022-09-15T02:14:43.365Z,1.00
2022-09-15T02:15:07.941Z,1.13
2022-09-15T02:15:30.721Z,1.00
2022-09-15T02:15:56.777Z,1.00
2022-09-15T02:16:20.042Z,1.00
2022-09-15T02:16:35.240Z,1.00
2022-09-15T02:16:52.462Z,1.08
2022-09-15T02:17:05.377Z,1.05
2022-09-15T02:17:20.677Z,0.98
2022-09-15T02:17:36.052Z,1.10
2022-09-15T02:17:54.146Z,1.05
2022-09-15T02:18:08.435Z,0.93
2022-09-15T02:18:39.884Z,1.17
2022-09-15T02:19:10.651Z,1.05
2022-09-15T02:19:33.444Z,0.98
2022-09-15T02:19:50.991Z,0.88
2022-09-15T02:20:08.719Z,1.00
2022-09-15T02:20:33.192Z,1.05
2022-09-15T02:21:00.684Z,1.00
2022-09-15T02:21:18.787Z,1.02
2022-09-15T02:21:40.829Z,1.20
2022-09-15T02:22:10.493Z,1.20
2022-09-15T02:22:30.283Z,1.10
2022-09-15T02:22:47.992Z,1.00
2022-09-15T02:23:08.342Z,1.10
2022-09-15T02:23:26.658Z,1.10
2022-09-15T02:23:43.669Z,1.15
2022-09-15T02:24:01.246Z,1.20
2022-09-15T02:24:19.600Z,1.20
2022-09-15T02:25:07.105Z,1.10
2022-09-15T02:25:28.842Z,1.00
2022-09-15T02:25:45.827Z,1.10
2022-09-15T02:26:04.876Z,1.10
2022-09-15T02:26:22.670Z,1.00
2022-09-15T02:26:36.199Z,1.13
2022-09-15T02:26:50.145Z,1.10
2022-09-15T02:27:04.210Z,1.13
2022-09-15T02:27:27.383Z,1.20
2022-09-15T02:27:47.647Z,1.10
2022-09-15T02:28:03.927Z,0.90
2022-09-15T02:28:16.908Z,1.00
2022-09-15T02:28:31.608Z,1.00
2022-09-15T02:28:45.556Z,0.98
2022-09-15T02:29:00.366Z,1.00
2022-09-15T02:29:16.149Z,1.13
2022-09-15T02:29:31.684Z,1.15
2022-09-15T02:29:47.098Z,1.08
2022-09-15T02:30:05.852Z,1.13
2022-09-15T02:30:19.829Z,1.10
2022-09-15T02:30:35.652Z,1.10
2022-09-15T02:30:49.324Z,1.15
2022-09-15T02:31:03.896Z,1.20
2022-09-15T02:31:18.274Z,1.20
2022-09-15T02:31:32.976Z,1.10
2022-09-15T02:31:47.155Z,1.10
2022-09-15T02:32:06.870Z,1.10
2022-09-15T02:32:23.140Z,1.20
2022-09-15T02:32:38.374Z,1.20
2022-09-15T02:32:56.930Z,1.23
2022-09-15T02:33:16.894Z,1.20
2022-09-15T02:33:34.968Z,1.13
2022-09-15T02:33:51.372Z,1.10
2022-09-15T02:34:13.667Z,1.10
2022-09-15T02:34:30.987Z,1.20
2022-09-15T02:34:48.054Z,1.15
2022-09-15T02:35:06.574Z,1.10
2022-09-15T02:35:18.847Z,1.15
2022-09-15T02:35:34.860Z,1.10
2022-09-15T02:35:47.439Z,1.30
2022-09-15T02:35:59.992Z,1.30
2022-09-15T02:36:15.652Z,1.27
2022-09-15T02:36:29.297Z,1.30
2022-09-15T02:36:42.379Z,1.35
2022-09-15T02:36:55.113Z,1.33
2022-09-15T02:37:09.796Z,1.10
2022-09-15T02:37:23.976Z,1.20
2022-09-15T02:37:37.891Z,1.25
2022-09-15T02:37:51.235Z,1.20
2022-09-15T02:38:06.391Z,1.20
2022-09-15T02:38:18.431Z,1.20
2022-09-15T02:38:36.803Z,1.27
2022-09-15T02:38:57.372Z,1.38
2022-09-15T02:39:13.411Z,1.20
2022-09-15T02:39:32.047Z,1.30
2022-09-15T02:39:58.033Z,1.40
2022-09-15T02:40:11.049Z,1.17
2022-09-15T02:40:23.186Z,1.10
2022-09-15T02:40:36.620Z,1.15
2022-09-15T02:40:49.071Z,1.17
2022-09-15T02:41:01.147Z,1.17
2022-09-15T02:41:14.150Z,1.08
2022-09-15T02:41:27.201Z,1.20
2022-09-15T02:41:39.696Z,1.25
2022-09-15T02:41:51.668Z,1.27
2022-09-15T02:42:04.056Z,1.13
2022-09-15T02:42:26.573Z,1.20
2022-09-15T02:42:39.224Z,1.25
2022-09-15T02:42:56.976Z,1.30
2022-09-15T02:43:12.364Z,1.20
2022-09-15T02:43:24.327Z,1.00
2022-09-15T02:43:44.964Z,1.17
2022-09-15T02:43:56.841Z,1.30
2022-09-15T02:44:09.940Z,1.30
2022-09-15T02:44:22.491Z,1.40
2022-09-15T02:44:34.524Z,1.48
2022-09-15T02:44:46.375Z,1.33
2022-09-15T02:44:59.475Z,1.30
2022-09-15T02:45:11.335Z,1.20
2022-09-15T02:45:26.840Z,1.30
2022-09-15T02:45:39.208Z,1.30
2022-09-15T02:45:51.213Z,1.30
2022-09-15T02:46:03.388Z,1.33
2022-09-15T02:46:18.139Z,1.33
2022-09-15T02:46:30.197Z,1.17
2022-09-15T02:46:43.015Z,1.10
2022-09-15T02:46:55.440Z,1.13
2022-09-15T02:47:07.539Z,1.20
2022-09-15T02:47:19.933Z,1.20
2022-09-15T02:47:32.013Z,1.20
2022-09-15T02:47:43.872Z,1.30
2022-09-15T02:47:56.185Z,1.40
2022-09-15T02:48:11.621Z,1.40
2022-09-15T02:48:25.158Z,1.25
2022-09-15T02:48:37.019Z,1.10
2022-09-15T02:48:49.175Z,1.10
2022-09-15T02:49:01.068Z,1.20
2022-09-15T02:49:13.649Z,1.27
2022-09-15T02:49:25.707Z,1.30
2022-09-15T02:49:37.562Z,1.30
2022-09-15T02:49:49.544Z,1.30
2022-09-15T02:50:01.472Z,1.40
2022-09-15T02:50:13.359Z,1.30
2022-09-15T02:50:28.442Z,1.15
2022-09-15T02:50:41.160Z,1.05
2022-09-15T02:50:53.035Z,1.10
2022-09-15T02:51:04.954Z,1.17
2022-09-15T02:51:18.129Z,1.23
2022-09-15T02:51:30.987Z,1.30
2022-09-15T02:51:42.874Z,1.38
2022-09-15T02:51:54.980Z,1.35
2022-09-15T02:52:07.312Z,1.42
2022-09-15T02:52:19.613Z,1.40
2022-09-15T02:52:31.534Z,1.40
2022-09-15T02:52:43.559Z,1.30
2022-09-15T02:52:55.835Z,1.30
2022-09-15T02:53:07.883Z,1.30
2022-09-15T02:53:19.732Z,1.30
2022-09-15T02:53:31.623Z,1.20
2022-09-15T02:53:44.466Z,1.10
2022-09-15T02:53:56.658Z,1.20
2022-09-15T02:54:08.612Z,1.35
2022-09-15T02:54:20.617Z,1.38
2022-09-15T02:54:32.583Z,1.30
2022-09-15T02:54:44.479Z,1.30
2022-09-15T02:54:56.333Z,1.30
2022-09-15T02:55:08.771Z,1.27
2022-09-15T02:55:20.803Z,1.30
2022-09-15T02:55:33.343Z,1.40
2022-09-15T02:55:45.209Z,1.42
2022-09-15T02:55:57.887Z,1.40
2022-09-15T02:56:09.974Z,1.42
2022-09-15T02:56:22.260Z,1.40
2022-09-15T02:56:34.159Z,1.35
2022-09-15T02:56:46.996Z,1.27
2022-09-15T02:57:00.142Z,1.20
2022-09-15T02:57:13.808Z,1.40
2022-09-15T02:57:25.671Z,1.38
2022-09-15T02:57:37.604Z,1.17
2022-09-15T02:57:49.495Z,1.17
2022-09-15T02:58:01.566Z,1.30
2022-09-15T02:58:13.423Z,1.30
2022-09-15T02:58:25.393Z,1.25
2022-09-15T02:58:37.428Z,1.20
2022-09-15T02:58:49.346Z,1.20
2022-09-15T02:59:01.496Z,1.40
2022-09-15T02:59:14.268Z,1.38
2022-09-15T02:59:26.264Z,1.35
2022-09-15T02:59:57.058Z,1.38
2022-09-15T03:00:13.200Z,1.17
2022-09-15T03:00:26.754Z,1.10
2022-09-15T03:00:39.120Z,1.20
2022-09-15T03:00:51.061Z,1.30
2022-09-15T03:01:04.597Z,1.40
2022-09-15T03:01:16.914Z,1.45
2022-09-15T03:01:32.125Z,1.50
2022-09-15T03:01:44.850Z,1.35
2022-09-15T03:01:58.880Z,1.38
2022-09-15T03:02:11.986Z,1.45
2022-09-15T03:02:25.212Z,1.40
2022-09-15T03:02:37.343Z,1.30
2022-09-15T03:02:52.197Z,1.35
2022-09-15T03:03:04.067Z,1.30
2022-09-15T03:03:18.417Z,1.30
2022-09-15T03:03:32.012Z,1.30
2022-09-15T03:03:45.884Z,1.40
2022-09-15T03:03:58.364Z,1.40
2022-09-15T03:04:10.301Z,1.30
2022-09-15T03:04:22.180Z,1.20
2022-09-15T03:04:36.010Z,1.35
2022-09-15T03:04:48.396Z,1.40
2022-09-15T03:05:00.415Z,1.40
2022-09-15T03:05:14.418Z,1.30
2022-09-15T03:05:29.193Z,1.30
2022-09-15T03:05:41.073Z,1.50
2022-09-15T03:05:52.979Z,1.63
2022-09-15T03:06:23.568Z,1.45
2022-09-15T03:06:37.229Z,1.42
2022-09-15T03:06:49.109Z,1.48
2022-09-15T03:07:00.987Z,1.55
2022-09-15T03:07:12.988Z,1.60
2022-09-15T03:07:24.973Z,1.38
2022-09-15T03:07:40.008Z,1.30
2022-09-15T03:07:52.375Z,1.20
2022-09-15T03:08:04.340Z,1.30
2022-09-15T03:08:16.211Z,1.30
2022-09-15T03:08:28.461Z,1.23
2022-09-15T03:08:41.012Z,1.25
2022-09-15T03:08:55.372Z,1.33
2022-09-15T03:09:08.137Z,1.40
2022-09-15T03:09:20.028Z,1.40
2022-09-15T03:09:31.892Z,1.40
2022-09-15T03:09:44.332Z,1.33
2022-09-15T03:09:56.298Z,1.40
2022-09-15T03:10:10.512Z,1.55
2022-09-15T03:10:24.039Z,1.48
2022-09-15T03:10:35.937Z,1.50
2022-09-15T03:10:47.804Z,1.38
2022-09-15T03:10:59.676Z,1.40
2022-09-15T03:11:12.110Z,1.30
2022-09-15T03:11:28.479Z,1.30
2022-09-15T03:11:40.391Z,1.30
2022-09-15T03:11:52.252Z,1.48
2022-09-15T03:12:04.722Z,1.70
2022-09-15T03:12:16.598Z,1.80
2022-09-15T03:12:31.299Z,1.50
2022-09-15T03:12:49.363Z,1.52
2022-09-15T03:13:02.149Z,1.50
2022-09-15T03:13:14.393Z,1.48
2022-09-15T03:13:26.883Z,1.40
2022-09-15T03:13:39.588Z,1.38
2022-09-15T03:13:56.792Z,1.40
2022-09-15T03:14:08.956Z,1.50
2022-09-15T03:14:20.839Z,1.58
2022-09-15T03:14:32.813Z,1.52
2022-09-15T03:14:44.681Z,1.50
2022-09-15T03:14:56.557Z,1.50
2022-09-15T03:15:11.113Z,1.50
2022-09-15T03:15:25.413Z,2.00
2022-09-15T03:15:37.299Z,2.20
2022-09-15T03:15:49.185Z,1.60
2022-09-15T03:16:07.504Z,1.50
2022-09-15T03:16:19.968Z,1.40
2022-09-15T03:16:34.463Z,1.40
2022-09-15T03:16:46.483Z,1.40
2022-09-15T03:16:59.456Z,1.30
2022-09-15T03:17:11.380Z,1.35
2022-09-15T03:17:23.248Z,1.40
2022-09-15T03:17:37.540Z,1.38
2022-09-15T03:17:49.775Z,1.35
2022-09-15T03:18:02.012Z,1.50
2022-09-15T03:18:13.885Z,1.52
2022-09-15T03:18:25.762Z,1.70
2022-09-15T03:18:39.048Z,1.55
2022-09-15T03:18:51.289Z,1.35
2022-09-15T03:19:04.002Z,1.38
2022-09-15T03:19:15.895Z,1.50
2022-09-15T03:19:28.097Z,1.48
2022-09-15T03:19:40.125Z,1.45
2022-09-15T03:19:54.875Z,1.40
2022-09-15T03:20:11.735Z,1.50
2022-09-15T03:20:28.076Z,1.55
2022-09-15T03:20:39.953Z,1.60
2022-09-15T03:20:56.650Z,1.50
2022-09-15T03:21:12.124Z,1.58
2022-09-15T03:21:24.024Z,1.65
2022-09-15T03:21:36.218Z,1.50
2022-09-15T03:21:48.108Z,1.67
2022-09-15T03:22:00.004Z,1.70
2022-09-15T03:22:11.931Z,1.55
2022-09-15T03:22:24.622Z,1.45
2022-09-15T03:22:36.611Z,1.40
2022-09-15T03:22:51.531Z,1.40
2022-09-15T03:23:03.401Z,1.50
2022-09-15T03:23:15.272Z,1.50
2022-09-15T03:23:27.243Z,1.50
2022-09-15T03:23:40.256Z,1.50
2022-09-15T03:23:52.304Z,1.50
2022-09-15T03:24:04.507Z,1.70
2022-09-15T03:24:16.407Z,1.60
2022-09-15T03:24:28.293Z,1.50
2022-09-15T03:24:42.231Z,1.52
2022-09-15T03:24:54.108Z,1.50
2022-09-15T03:25:07.261Z,1.50
2022-09-15T03:25:19.598Z,1.77
2022-09-15T03:25:32.245Z,1.83
2022-09-15T03:25:45.633Z,1.70
2022-09-15T03:25:59.247Z,1.50
2022-09-15T03:26:11.865Z,1.50
2022-09-15T03:26:23.800Z,1.67
2022-09-15T03:26:35.686Z,1.80
2022-09-15T03:26:48.150Z,1.70
2022-09-15T03:27:00.196Z,1.60
2022-09-15T03:27:12.380Z,1.50
2022-09-15T03:27:24.358Z,1.50
2022-09-15T03:27:37.517Z,1.65
2022-09-15T03:27:49.441Z,1.70
2022-09-15T03:28:04.343Z,1.70
2022-09-15T03:28:18.927Z,1.63
2022-09-15T03:28:30.812Z,1.60
2022-09-15T03:28:43.028Z,1.60
2022-09-15T03:28:54.922Z,1.65
2022-09-15T03:29:06.788Z,1.60
2022-09-15T03:29:21.484Z,1.50
2022-09-15T03:29:33.375Z,1.60
2022-09-15T03:29:45.468Z,1.90
2022-09-15T03:29:57.367Z,1.80
2022-09-15T03:30:10.610Z,1.67
2022-09-15T03:30:22.582Z,1.60
2022-09-15T03:30:34.484Z,1.70
2022-09-15T03:30:48.747Z,1.60
2022-09-15T03:31:00.902Z,1.60
2022-09-15T03:31:13.255Z,1.60
2022-09-15T03:31:25.244Z,1.60
2022-09-15T03:31:38.450Z,1.60
2022-09-15T03:31:50.414Z,1.60